Time;durP1;ratioP1;P1;durP2;ratioP2;P2;SDS_P1;SDS_P2;PMS_P1;PMS_P2;Temp;Humidity;BMP_temperature;BMP_pressure;BME280_temperature;BME280_humidity;BME280_pressure;Samples;Min_cycle;Max_cycle;Signal;HPM_P1;HPM_P2
2021/12/11 00:00:17;;;;;;;24.08;12.70;;;0.10;99.90;;;;;;4993612;28;20178;-77
2021/12/11 00:02:53;;;;;;;25.95;11.23;;;0.00;99.90;;;;;;5009858;28;20264;-75
2021/12/11 00:05:19;;;;;;;28.45;11.57;;;0.00;99.90;;;;;;5009881;28;20169;-75
2021/12/11 00:07:45;;;;;;;30.20;12.15;;;0.00;99.90;;;;;;5009779;28;20179;-77
2021/12/11 00:10:29;;;;;;;32.08;12.02;;;0.00;99.90;;;;;;5009908;28;20251;-77
2021/12/11 00:13:00;;;;;;;34.40;11.98;;;-0.10;99.90;;;;;;5009621;28;20284;-78
2021/12/11 00:15:33;;;;;;;26.60;12.13;;;-0.10;99.90;;;;;;4993340;28;20192;-75
2021/12/11 00:18:04;;;;;;;25.73;12.48;;;-0.20;99.90;;;;;;4993500;28;20183;-77
2021/12/11 00:20:34;;;;;;;27.65;12.98;;;-0.20;99.90;;;;;;5009610;28;20186;-77
2021/12/11 00:23:01;;;;;;;26.75;13.35;;;-0.20;99.90;;;;;;5009497;28;20202;-77
2021/12/11 00:25:28;;;;;;;45.90;17.45;;;-0.20;99.90;;;;;;5027753;28;20185;-76
2021/12/11 00:28:04;;;;;;;33.05;14.48;;;-0.20;99.90;;;;;;5053299;28;20201;-77
2021/12/11 00:30:35;;;;;;;27.83;12.98;;;-0.20;99.90;;;;;;5070975;28;20165;-78
2021/12/11 00:33:07;;;;;;;33.72;16.38;;;-0.20;99.90;;;;;;5070943;28;20165;-77
2021/12/11 00:35:34;;;;;;;33.78;16.05;;;-0.20;99.90;;;;;;5070892;28;20161;-77
2021/12/11 00:38:09;;;;;;;33.55;15.07;;;-0.30;99.90;;;;;;5070832;28;20149;-77
2021/12/11 00:40:38;;;;;;;36.13;15.07;;;-0.30;99.90;;;;;;5070802;28;20158;-77
2021/12/11 00:43:11;;;;;;;35.63;15.35;;;-0.30;99.90;;;;;;5070672;28;20279;-76
2021/12/11 00:45:40;;;;;;;40.60;17.00;;;-0.30;99.90;;;;;;5070656;28;20153;-77
2021/12/11 00:48:18;;;;;;;36.10;14.73;;;-0.30;99.90;;;;;;5051869;28;20166;-77
2021/12/11 00:50:47;;;;;;;33.97;14.45;;;-0.30;99.90;;;;;;5050614;28;20172;-76
2021/12/11 00:53:22;;;;;;;33.03;13.20;;;-0.40;99.90;;;;;;5050675;28;20165;-76
2021/12/11 00:55:52;;;;;;;36.75;14.38;;;-0.30;99.90;;;;;;5050375;28;20260;-76
2021/12/11 00:58:20;;;;;;;35.92;14.90;;;-0.30;99.90;;;;;;5035129;28;20280;-77
2021/12/11 01:01:07;;;;;;;23.58;12.07;;;-0.30;99.90;;;;;;5002769;28;20185;-77
2021/12/11 01:03:50;;;;;;;25.80;12.52;;;-0.30;99.90;;;;;;5030571;28;20170;-76
2021/12/11 01:06:37;;;;;;;26.52;13.00;;;-0.30;99.90;;;;;;5030534;28;20222;-76
2021/12/11 01:09:20;;;;;;;30.92;12.50;;;-0.20;99.90;;;;;;5030418;28;20189;-75
2021/12/11 01:11:54;;;;;;;25.90;11.70;;;-0.20;99.90;;;;;;5030273;28;20678;-76
2021/12/11 01:14:43;;;;;;;28.80;13.63;;;-0.30;99.90;;;;;;5030524;28;20186;-76
2021/12/11 01:17:23;;;;;;;28.60;13.20;;;-0.30;99.90;;;;;;5030312;28;20181;-77
2021/12/11 01:19:55;;;;;;;27.08;13.65;;;-0.20;99.90;;;;;;5030320;28;20245;-77
2021/12/11 01:22:33;;;;;;;33.08;13.40;;;-0.20;99.90;;;;;;5029951;28;20209;-77
2021/12/11 01:25:09;;;;;;;26.20;12.02;;;-0.20;99.90;;;;;;5030154;28;20165;-77
2021/12/11 01:27:38;;;;;;;31.83;12.85;;;-0.20;99.90;;;;;;5030053;28;20158;-77
2021/12/11 01:30:08;;;;;;;28.33;13.10;;;-0.30;99.90;;;;;;5012325;28;20172;-77
2021/12/11 01:32:34;;;;;;;29.27;12.77;;;-0.30;99.90;;;;;;5029901;28;20217;-76
2021/12/11 01:35:04;;;;;;;33.63;15.45;;;-0.30;99.90;;;;;;5029871;28;20170;-76
2021/12/11 01:37:30;;;;;;;29.30;13.43;;;-0.30;99.90;;;;;;5029729;28;20220;-76
2021/12/11 01:39:56;;;;;;;34.97;14.95;;;-0.30;99.90;;;;;;5029881;28;20162;-77
2021/12/11 01:42:33;;;;;;;39.20;14.82;;;-0.30;99.90;;;;;;5029620;28;20305;-77
2021/12/11 01:45:01;;;;;;;29.23;12.82;;;-0.30;99.90;;;;;;5029768;28;20245;-77
2021/12/11 01:47:31;;;;;;;29.55;12.70;;;-0.30;99.90;;;;;;5029737;28;20177;-77
2021/12/11 01:50:06;;;;;;;32.50;13.60;;;-0.30;99.90;;;;;;5029707;28;20158;-77
2021/12/11 01:52:47;;;;;;;25.02;11.85;;;-0.20;99.90;;;;;;5029686;28;20197;-77
2021/12/11 01:55:20;;;;;;;34.63;13.13;;;-0.20;99.90;;;;;;5029547;28;20196;-77
2021/12/11 01:57:52;;;;;;;29.55;12.48;;;-0.30;99.90;;;;;;5022513;28;20228;-76
2021/12/11 02:00:34;;;;;;;30.65;12.32;;;-0.40;99.90;;;;;;5055267;28;20187;-77
2021/12/11 02:03:05;;;;;;;23.20;11.48;;;-0.40;99.90;;;;;;5069122;28;20205;-77
2021/12/11 02:05:33;;;;;;;28.48;12.93;;;-0.40;99.90;;;;;;5069176;28;20164;-77
2021/12/11 02:08:02;;;;;;;27.92;11.45;;;-0.40;99.90;;;;;;5069256;28;20161;-77
2021/12/11 02:10:36;;;;;;;22.77;10.82;;;-0.40;99.90;;;;;;5069177;28;20154;-77
2021/12/11 02:13:07;;;;;;;28.48;12.80;;;-0.40;99.90;;;;;;5068628;28;20168;-77
2021/12/11 02:15:37;;;;;;;33.58;13.70;;;-0.50;99.90;;;;;;5069158;28;20217;-77
2021/12/11 02:18:18;;;;;;;29.65;13.00;;;-0.40;99.90;;;;;;5069162;28;20161;-77
2021/12/11 02:20:53;;;;;;;26.83;11.10;;;-0.40;99.90;;;;;;5069066;28;20501;-77
2021/12/11 02:23:20;;;;;;;29.33;11.93;;;-0.40;99.90;;;;;;5067816;28;20219;-75
2021/12/11 02:25:49;;;;;;;37.75;11.93;;;-0.40;99.90;;;;;;5069034;28;20235;-76
2021/12/11 02:28:50;;;;;;;28.83;13.57;;;-0.40;99.90;;;;;;5068969;28;20161;-76
2021/12/11 02:31:32;;;;;;;30.30;13.05;;;-0.40;99.90;;;;;;5068944;28;20196;-76
2021/12/11 02:34:06;;;;;;;27.70;11.88;;;-0.40;99.90;;;;;;5069062;28;20157;-76
2021/12/11 02:36:57;;;;;;;28.38;12.65;;;-0.40;99.90;;;;;;5068963;28;20155;-76
2021/12/11 02:39:45;;;;;;;31.00;12.55;;;-0.40;99.90;;;;;;5067507;28;20191;-76
2021/12/11 02:42:39;;;;;;;30.77;12.02;;;-0.40;99.90;;;;;;5068768;28;20197;-76
2021/12/11 02:45:22;;;;;;;21.83;11.50;;;-0.40;99.90;;;;;;5068742;28;20156;-76
2021/12/11 02:47:56;;;;;;;27.88;12.45;;;-0.30;99.90;;;;;;5068863;28;20686;-77
2021/12/11 02:50:35;;;;;;;27.35;13.07;;;-0.30;99.90;;;;;;5068733;28;20223;-76
2021/12/11 02:53:04;;;;;;;28.98;12.38;;;-0.30;99.90;;;;;;5068585;28;20161;-76
2021/12/11 02:55:49;;;;;;;31.42;12.68;;;-0.30;99.90;;;;;;5068865;28;20179;-76
2021/12/11 02:58:22;;;;;;;28.42;11.40;;;-0.30;99.90;;;;;;5068514;28;20224;-76
2021/12/11 03:01:09;;;;;;;25.48;12.73;;;-0.30;99.90;;;;;;5068709;28;20629;-77
2021/12/11 03:03:41;;;;;;;32.17;12.65;;;-0.40;99.90;;;;;;5068661;28;20192;-76
2021/12/11 03:06:19;;;;;;;29.85;12.15;;;-0.40;99.90;;;;;;5068794;28;20247;-76
2021/12/11 03:08:47;;;;;;;27.98;12.05;;;-0.40;99.90;;;;;;5068669;28;20188;-76
2021/12/11 03:11:18;;;;;;;25.42;13.43;;;-0.40;99.90;;;;;;5068729;28;20614;-76
2021/12/11 03:13:50;;;;;;;24.15;11.38;;;-0.50;99.90;;;;;;5068690;28;20221;-77
2021/12/11 03:16:26;;;;;;;31.55;12.48;;;-0.60;99.90;;;;;;5068732;28;20157;-75
2021/12/11 03:18:53;;;;;;;35.30;11.90;;;-0.60;99.90;;;;;;5068523;28;20219;-76
2021/12/11 03:21:19;;;;;;;23.35;10.60;;;-0.70;99.90;;;;;;5068465;28;20149;-75
2021/12/11 03:23:46;;;;;;;25.90;11.25;;;-0.80;99.90;;;;;;5070086;28;20161;-76
2021/12/11 03:26:12;;;;;;;29.95;14.82;;;-0.80;99.90;;;;;;5072431;28;20243;-75
2021/12/11 03:28:38;;;;;;;20.58;10.68;;;-0.90;99.90;;;;;;5072008;28;20271;-76
2021/12/11 03:31:06;;;;;;;21.05;12.02;;;-1.00;99.90;;;;;;5072045;28;20161;-76
2021/12/11 03:33:40;;;;;;;24.48;12.10;;;-1.00;99.90;;;;;;5072076;28;20172;-76
2021/12/11 03:36:08;;;;;;;29.42;11.55;;;-1.10;99.90;;;;;;5070583;28;20172;-76
2021/12/11 03:38:37;;;;;;;32.90;13.07;;;-1.10;99.90;;;;;;5071882;28;20203;-76
2021/12/11 03:41:04;;;;;;;28.75;11.23;;;-1.30;99.90;;;;;;5071882;28;20176;-76
2021/12/11 03:43:31;;;;;;;23.15;12.07;;;-1.30;99.90;;;;;;5071811;28;20210;-77
2021/12/11 03:46:00;;;;;;;21.48;12.32;;;-1.30;99.90;;;;;;5071943;28;20185;-77
2021/12/11 03:49:00;;;;;;;28.27;12.65;;;-1.30;99.90;;;;;;5071754;28;20210;-76
2021/12/11 03:51:37;;;;;;;27.48;11.98;;;-1.30;99.90;;;;;;5071145;28;20214;-76
2021/12/11 03:54:10;;;;;;;26.27;11.68;;;-1.30;99.90;;;;;;5071663;28;20152;-76
2021/12/11 03:56:38;;;;;;;26.92;12.00;;;-1.40;99.90;;;;;;5071425;28;20177;-75
2021/12/11 03:59:10;;;;;;;30.42;12.65;;;-1.50;99.90;;;;;;5071246;28;20587;-75
2021/12/11 04:01:43;;;;;;;23.25;11.23;;;-1.60;99.90;;;;;;5071391;28;20222;-75
2021/12/11 04:04:41;;;;;;;25.25;12.15;;;-1.60;99.90;;;;;;5071481;28;20184;-75
2021/12/11 04:07:16;;;;;;;20.45;9.80;;;-1.70;99.90;;;;;;5070991;28;20184;-76
2021/12/11 04:09:44;;;;;;;20.52;10.23;;;-1.60;99.90;;;;;;5071235;28;20191;-77
2021/12/11 04:12:10;;;;;;;27.55;11.55;;;-1.60;99.90;;;;;;5071414;28;20164;-77
2021/12/11 04:14:39;;;;;;;27.25;11.63;;;-1.70;99.90;;;;;;5071255;28;20183;-76
2021/12/11 04:17:06;;;;;;;22.95;10.98;;;-1.80;99.90;;;;;;5071338;28;20161;-76
2021/12/11 04:19:33;;;;;;;25.58;9.75;;;-1.90;99.90;;;;;;5071144;28;20197;-77
2021/12/11 04:22:00;;;;;;;20.80;10.35;;;-1.80;99.90;;;;;;5071228;28;20280;-76
2021/12/11 04:24:30;;;;;;;39.72;19.45;;;-1.80;99.90;;;;;;5071158;28;20160;-77
2021/12/11 04:26:59;;;;;;;41.30;17.77;;;-1.80;99.90;;;;;;5070900;28;20176;-77
2021/12/11 04:29:25;;;;;;;30.38;13.55;;;-1.70;99.90;;;;;;5070709;28;20189;-77
2021/12/11 04:31:52;;;;;;;32.40;14.35;;;-1.70;99.90;;;;;;5071076;28;20164;-77
2021/12/11 04:34:21;;;;;;;22.42;12.95;;;-1.70;99.90;;;;;;5070953;28;20157;-77
2021/12/11 04:36:56;;;;;;;27.95;14.45;;;-1.80;99.90;;;;;;5070464;28;20187;-77
2021/12/11 04:39:25;;;;;;;21.48;11.93;;;-1.90;99.90;;;;;;5070810;28;20227;-77
2021/12/11 04:42:05;;;;;;;21.27;11.50;;;-2.00;99.90;;;;;;5070748;28;20200;-77
2021/12/11 04:44:38;;;;;;;20.48;11.27;;;-2.10;99.90;;;;;;5070944;28;20183;-78
2021/12/11 04:47:11;;;;;;;21.80;12.55;;;-2.10;99.90;;;;;;5070659;28;20164;-75
2021/12/11 04:49:45;;;;;;;28.13;12.77;;;-2.20;99.90;;;;;;5070581;28;20252;-75
2021/12/11 04:52:22;;;;;;;36.00;11.25;;;-2.20;99.90;;;;;;5070409;28;20172;-76
2021/12/11 04:56:12;;;;;;;18.38;9.13;;;-2.20;99.90;;;;;;5070492;28;20188;-75
2021/12/11 05:00:49;;;;;;;20.60;10.60;;;-2.10;99.90;;;;;;5070447;28;20203;-76
2021/12/11 05:11:08;;;;;;;23.17;10.23;;;-1.90;99.90;;;;;;5069096;28;20163;-76
2021/12/11 05:13:34;;;;;;;22.90;11.57;;;-1.80;99.90;;;;;;5070194;28;20244;-76
2021/12/11 05:16:06;;;;;;;18.90;9.02;;;-1.90;99.90;;;;;;5070171;28;20169;-76
2021/12/11 05:18:35;;;;;;;21.02;9.90;;;-1.90;99.90;;;;;;5070052;28;20227;-77
2021/12/11 05:21:07;;;;;;;24.33;11.70;;;-1.90;99.90;;;;;;5069921;28;20184;-76
2021/12/11 05:23:33;;;;;;;24.33;11.43;;;-1.90;99.90;;;;;;5069868;28;20219;-77
2021/12/11 05:26:00;;;;;;;25.20;10.05;;;-1.90;99.90;;;;;;5070048;28;20157;-76
2021/12/11 05:28:27;;;;;;;25.63;12.68;;;-1.90;99.90;;;;;;5069770;28;20195;-76
2021/12/11 05:30:55;;;;;;;19.48;10.07;;;-1.90;99.90;;;;;;5069749;28;20153;-75
2021/12/11 05:33:22;;;;;;;26.92;12.48;;;-1.80;99.90;;;;;;5069840;28;20161;-75
2021/12/11 05:35:49;;;;;;;22.75;12.07;;;-1.80;99.90;;;;;;5069753;28;20232;-75
2021/12/11 05:38:17;;;;;;;34.30;12.65;;;-1.70;99.90;;;;;;5069588;28;20215;-76
2021/12/11 05:40:49;;;;;;;23.55;11.07;;;-1.60;99.90;;;;;;5069672;28;20195;-75
2021/12/11 05:43:16;;;;;;;23.92;11.57;;;-1.60;99.90;;;;;;5069503;28;20195;-76
2021/12/11 05:45:43;;;;;;;20.92;12.15;;;-1.60;99.90;;;;;;5069521;28;20569;-77
2021/12/11 05:48:11;;;;;;;24.55;11.40;;;-1.50;99.90;;;;;;5068626;28;20167;-76
2021/12/11 05:50:48;;;;;;;20.98;11.95;;;-1.50;99.90;;;;;;5069577;28;20153;-75
2021/12/11 05:53:17;;;;;;;21.67;10.80;;;-1.40;99.90;;;;;;5069680;28;20609;-75
2021/12/11 05:55:46;;;;;;;20.10;10.75;;;-1.40;99.90;;;;;;5069430;28;20172;-76
2021/12/11 05:58:15;;;;;;;27.80;11.70;;;-1.40;99.90;;;;;;5069173;28;20212;-76
2021/12/11 06:00:46;;;;;;;27.08;11.80;;;-1.40;99.90;;;;;;5069426;28;20232;-75
2021/12/11 06:03:14;;;;;;;23.80;11.63;;;-1.30;99.90;;;;;;5069326;28;20275;-75
2021/12/11 06:05:41;;;;;;;22.95;11.45;;;-1.30;99.90;;;;;;5067934;28;20172;-76
2021/12/11 06:08:09;;;;;;;24.17;9.85;;;-1.20;99.90;;;;;;5069124;28;20164;-76
2021/12/11 06:10:37;;;;;;;23.10;9.90;;;-1.20;99.90;;;;;;5069256;28;20240;-76
2021/12/11 06:13:03;;;;;;;28.38;11.57;;;-1.20;99.90;;;;;;5068914;28;20164;-76
2021/12/11 06:15:30;;;;;;;28.15;12.73;;;-1.20;99.90;;;;;;5069240;28;20165;-75
2021/12/11 06:17:57;;;;;;;27.00;12.63;;;-1.10;99.90;;;;;;5069148;28;20645;-76
2021/12/11 06:20:27;;;;;;;24.02;11.32;;;-1.10;99.90;;;;;;5069023;28;20683;-75
2021/12/11 06:22:54;;;;;;;22.73;11.77;;;-1.10;99.90;;;;;;5069094;28;20190;-76
2021/12/11 06:25:31;;;;;;;27.02;10.68;;;-1.00;99.90;;;;;;5069055;28;20473;-76
2021/12/11 06:27:57;;;;;;;30.67;11.95;;;-1.00;99.90;;;;;;5068941;28;20236;-77
2021/12/11 06:30:23;;;;;;;27.25;13.65;;;-1.00;99.90;;;;;;5068996;28;20192;-76
2021/12/11 06:32:51;;;;;;;28.17;13.65;;;-0.90;99.90;;;;;;5069132;28;20165;-75
2021/12/11 06:35:33;;;;;;;25.92;12.00;;;-0.90;99.90;;;;;;5068812;28;20160;-76
2021/12/11 06:37:59;;;;;;;30.33;13.85;;;-0.90;99.90;;;;;;5068871;28;20528;-76
2021/12/11 06:40:27;;;;;;;37.80;14.82;;;-0.80;99.90;;;;;;5068784;28;20212;-75
2021/12/11 06:42:54;;;;;;;31.55;15.05;;;-0.80;99.90;;;;;;5068771;28;20188;-75
2021/12/11 06:45:22;;;;;;;39.50;13.68;;;-0.80;99.90;;;;;;5068870;28;20161;-76
2021/12/11 06:47:49;;;;;;;33.75;13.63;;;-0.80;99.90;;;;;;5068752;28;20583;-75
2021/12/11 06:50:16;;;;;;;31.75;12.00;;;-0.90;99.90;;;;;;5068672;28;20208;-79
2021/12/11 06:52:43;;;;;;;25.63;12.00;;;-0.80;99.90;;;;;;5068820;28;20168;-77
2021/12/11 06:55:09;;;;;;;33.15;14.20;;;-0.80;99.90;;;;;;5068760;28;20188;-76
2021/12/11 06:57:36;;;;;;;33.20;14.98;;;-0.80;99.90;;;;;;5068569;28;20251;-77
2021/12/11 07:00:07;;;;;;;33.45;13.43;;;-0.80;99.90;;;;;;5072138;28;20204;-76
2021/12/11 07:02:34;;;;;;;28.85;13.32;;;-0.80;99.90;;;;;;5071682;28;20196;-77
2021/12/11 07:04:59;;;;;;;29.23;12.38;;;-0.70;99.90;;;;;;5072552;28;20157;-77
2021/12/11 07:07:32;;;;;;;29.48;13.57;;;-0.70;99.90;;;;;;5072556;28;20199;-76
2021/12/11 07:09:59;;;;;;;37.38;13.23;;;-0.70;99.90;;;;;;5072215;28;20191;-76
2021/12/11 07:12:25;;;;;;;35.55;13.68;;;-0.60;99.90;;;;;;5071536;28;20160;-76
2021/12/11 07:14:52;;;;;;;29.85;12.98;;;-0.60;99.90;;;;;;5072427;28;20191;-77
2021/12/11 07:17:19;;;;;;;37.60;13.75;;;-0.60;99.90;;;;;;5072406;28;20157;-75
2021/12/11 07:19:46;;;;;;;24.75;11.30;;;-0.60;99.90;;;;;;5064841;28;20692;-76
2021/12/11 07:22:14;;;;;;;27.58;10.93;;;-0.70;99.90;;;;;;5048886;28;20193;-78
2021/12/11 07:24:45;;;;;;;29.05;10.80;;;-0.70;99.90;;;;;;5052180;28;20184;-76
2021/12/11 07:27:11;;;;;;;33.78;13.98;;;-0.60;99.90;;;;;;5050628;28;20180;-76
2021/12/11 07:29:38;;;;;;;31.85;11.77;;;-0.60;99.90;;;;;;5051870;28;20185;-76
2021/12/11 07:32:06;;;;;;;28.25;12.35;;;-0.60;99.90;;;;;;5051990;28;20216;-76
2021/12/11 07:34:32;;;;;;;32.00;11.48;;;-0.70;99.90;;;;;;5052057;28;20169;-76
2021/12/11 07:36:59;;;;;;;27.52;11.68;;;-0.70;99.90;;;;;;5045703;28;20174;-76
2021/12/11 07:39:25;;;;;;;23.58;11.45;;;-0.70;99.90;;;;;;5032966;28;20194;-76
2021/12/11 07:41:53;;;;;;;29.00;12.93;;;-0.80;99.90;;;;;;5045117;28;20202;-77
2021/12/11 07:44:20;;;;;;;27.25;11.57;;;-0.80;99.90;;;;;;5034339;28;20204;-76
2021/12/11 07:46:47;;;;;;;22.55;11.68;;;-0.80;99.90;;;;;;5043759;28;20611;-77
2021/12/11 07:49:13;;;;;;;26.25;11.95;;;-0.80;99.90;;;;;;5046773;28;20209;-76
2021/12/11 07:51:39;;;;;;;30.25;14.00;;;-0.80;99.90;;;;;;5035787;28;20169;-76
2021/12/11 07:54:07;;;;;;;29.95;13.60;;;-0.80;99.90;;;;;;5038291;28;20177;-76
2021/12/11 07:56:35;;;;;;;24.33;11.38;;;-0.70;99.90;;;;;;5042047;28;20178;-77
2021/12/11 07:59:03;;;;;;;25.92;12.55;;;-0.80;99.90;;;;;;5028299;28;20617;-77
2021/12/11 08:01:33;;;;;;;27.58;12.65;;;-0.80;99.90;;;;;;5016807;28;20169;-77
2021/12/11 08:04:00;;;;;;;23.45;11.65;;;-0.70;99.90;;;;;;5011051;28;20190;-77
2021/12/11 08:06:28;;;;;;;25.63;12.80;;;-0.70;99.90;;;;;;5021299;28;20609;-77
2021/12/11 08:08:54;;;;;;;26.95;12.38;;;-0.60;99.90;;;;;;5030909;28;20547;-78
2021/12/11 08:11:21;;;;;;;25.70;12.90;;;-0.50;99.90;;;;;;5030994;28;20169;-77
2021/12/11 08:13:50;;;;;;;27.00;13.38;;;-0.50;99.90;;;;;;5026524;28;20174;-79
2021/12/11 08:16:22;;;;;;;29.90;11.90;;;-0.50;99.90;;;;;;5021745;28;20166;-78
2021/12/11 08:18:50;;;;;;;26.25;12.48;;;-0.50;99.90;;;;;;5018607;28;20195;-79
2021/12/11 08:21:16;;;;;;;34.53;12.98;;;-0.50;99.90;;;;;;5027565;28;20700;-78
2021/12/11 08:23:43;;;;;;;24.00;11.65;;;-0.40;99.90;;;;;;5015066;28;20244;-78
2021/12/11 08:26:11;;;;;;;23.95;12.48;;;-0.30;99.90;;;;;;5023636;28;20171;-78
2021/12/11 08:28:37;;;;;;;28.13;13.77;;;-0.30;99.90;;;;;;5022107;28;20205;-79
2021/12/11 08:31:03;;;;;;;27.70;13.52;;;-0.30;99.90;;;;;;5030778;28;20170;-77
2021/12/11 08:33:29;;;;;;;33.35;13.38;;;-0.30;99.90;;;;;;5031016;28;20238;-77
2021/12/11 08:35:56;;;;;;;30.73;13.40;;;-0.30;99.90;;;;;;5030994;28;20162;-76
2021/12/11 08:38:22;;;;;;;30.60;13.63;;;-0.10;99.90;;;;;;5030484;28;20170;-77
2021/12/11 08:40:52;;;;;;;28.63;12.18;;;-0.10;99.90;;;;;;5030679;28;20504;-77
2021/12/11 08:43:21;;;;;;;28.70;12.50;;;-0.10;99.90;;;;;;5013127;28;20201;-77
2021/12/11 08:46:09;;;;;;;36.70;12.77;;;-0.10;99.90;;;;;;5030725;28;20162;-77
2021/12/11 08:48:44;;;;;;;31.95;14.18;;;-0.10;99.90;;;;;;5030496;28;20194;-77
2021/12/11 08:51:36;;;;;;;29.48;12.57;;;-0.10;99.90;;;;;;5030683;28;20216;-76
2021/12/11 08:54:07;;;;;;;37.08;13.95;;;-0.20;99.90;;;;;;5029448;28;20170;-77
2021/12/11 08:56:35;;;;;;;30.17;13.18;;;-0.30;99.90;;;;;;5030460;28;20199;-77
2021/12/11 08:59:05;;;;;;;31.52;13.38;;;-0.20;99.90;;;;;;5030416;28;20225;-76
2021/12/11 09:01:40;;;;;;;37.30;13.93;;;-0.10;99.90;;;;;;5030352;28;20277;-75
2021/12/11 09:04:12;;;;;;;35.58;15.65;;;0.00;99.90;;;;;;5030437;28;20169;-77
2021/12/11 09:06:43;;;;;;;31.73;13.90;;;0.00;99.90;;;;;;5030337;28;20205;-76
2021/12/11 09:09:14;;;;;;;31.67;14.88;;;0.00;99.90;;;;;;5030268;28;20159;-77
2021/12/11 09:11:59;;;;;;;34.30;14.15;;;0.10;99.90;;;;;;5030145;28;20211;-76
2021/12/11 09:14:34;;;;;;;29.17;14.00;;;0.20;99.90;;;;;;5030085;28;20154;-77
2021/12/11 09:17:16;;;;;;;31.13;11.95;;;0.20;99.90;;;;;;5028765;28;20189;-77
2021/12/11 09:19:59;;;;;;;26.13;12.82;;;0.30;99.90;;;;;;5030278;28;20190;-77
2021/12/11 09:22:31;;;;;;;27.70;13.18;;;0.30;99.90;;;;;;5029687;28;20217;-77
2021/12/11 09:24:59;;;;;;;37.83;13.10;;;0.40;99.90;;;;;;5030020;28;20244;-77
2021/12/11 09:27:35;;;;;;;29.95;11.75;;;0.40;99.90;;;;;;5028616;28;20522;-76
2021/12/11 09:30:14;;;;;;;25.48;12.75;;;0.40;99.90;;;;;;5029480;28;20158;-77
2021/12/11 09:32:48;;;;;;;26.02;12.23;;;0.50;99.90;;;;;;5029611;28;20233;-77
2021/12/11 09:35:34;;;;;;;28.77;13.35;;;0.50;99.90;;;;;;5029808;28;20197;-77
2021/12/11 09:38:25;;;;;;;37.78;16.15;;;0.50;99.90;;;;;;5028418;28;20182;-76
2021/12/11 09:40:56;;;;;;;30.98;12.88;;;0.50;99.90;;;;;;5029505;28;20166;-76
2021/12/11 09:43:40;;;;;;;27.15;10.43;;;0.50;99.90;;;;;;5029392;28;20193;-77
2021/12/11 09:46:10;;;;;;;25.80;10.23;;;0.50;99.90;;;;;;5029318;28;20193;-76
2021/12/11 09:48:39;;;;;;;28.05;10.80;;;0.50;99.90;;;;;;5029210;28;20158;-77
2021/12/11 09:51:12;;;;;;;27.45;10.63;;;0.50;99.90;;;;;;5029342;28;20146;-77
2021/12/11 09:53:51;;;;;;;28.55;10.98;;;0.60;99.90;;;;;;5029403;28;20162;-76
2021/12/11 09:57:03;;;;;;;24.90;10.20;;;0.60;99.90;;;;;;5029200;28;20193;-76
2021/12/11 09:59:35;;;;;;;24.52;10.60;;;0.60;99.90;;;;;;5028690;28;20201;-76
2021/12/11 10:02:06;;;;;;;23.92;10.68;;;0.60;99.90;;;;;;5028888;28;20192;-76
2021/12/11 10:04:39;;;;;;;26.30;10.70;;;0.60;99.90;;;;;;5011631;28;20178;-77
2021/12/11 10:09:46;;;;;;;21.85;9.43;;;0.70;99.90;;;;;;5029337;28;20159;-76
2021/12/11 10:12:16;;;;;;;29.08;12.02;;;0.70;99.90;;;;;;5011265;28;20201;-77
2021/12/11 10:15:00;;;;;;;31.13;14.48;;;0.50;99.90;;;;;;5029099;28;20158;-76
2021/12/11 10:17:34;;;;;;;40.45;16.65;;;0.40;99.90;;;;;;5028914;28;20521;-77
2021/12/11 10:20:03;;;;;;;39.33;16.08;;;0.40;99.90;;;;;;5029117;28;20192;-77
2021/12/11 10:22:33;;;;;;;29.27;12.85;;;0.40;99.90;;;;;;5028738;28;20240;-77
2021/12/11 10:25:01;;;;;;;32.40;13.43;;;0.40;99.90;;;;;;5028772;28;20301;-76
2021/12/11 10:27:30;;;;;;;27.42;13.52;;;0.40;99.90;;;;;;5028783;28;20158;-77
2021/12/11 10:29:58;;;;;;;26.42;11.88;;;0.50;99.90;;;;;;5028755;28;20189;-76
2021/12/11 10:32:30;;;;;;;36.50;14.35;;;0.40;99.90;;;;;;5028597;28;20246;-78
2021/12/11 10:34:59;;;;;;;25.63;12.45;;;0.40;99.90;;;;;;5032436;28;20162;-77
2021/12/11 10:37:32;;;;;;;27.13;12.27;;;0.40;99.90;;;;;;5032891;28;20250;-76
2021/12/11 10:40:03;;;;;;;28.33;11.50;;;0.40;99.90;;;;;;5015135;28;20174;-78
2021/12/11 10:42:29;;;;;;;26.40;10.73;;;0.50;99.90;;;;;;5032706;28;20188;-77
2021/12/11 10:44:58;;;;;;;22.98;10.32;;;0.50;99.90;;;;;;5032673;28;20178;-75
2021/12/11 10:47:33;;;;;;;23.67;10.13;;;0.60;99.90;;;;;;5032670;28;20189;-75
2021/12/11 10:50:03;;;;;;;21.50;10.80;;;0.70;99.90;;;;;;5031719;28;20173;-76
2021/12/11 10:52:31;;;;;;;23.83;10.93;;;0.70;99.90;;;;;;5032457;28;20158;-77
2021/12/11 10:55:03;;;;;;;18.55;9.70;;;0.70;99.90;;;;;;5032509;28;20163;-76
2021/12/11 10:57:32;;;;;;;20.38;10.55;;;0.80;99.90;;;;;;5032256;28;20312;-77
2021/12/11 11:00:03;;;;;;;24.40;11.00;;;0.80;99.90;;;;;;5032471;28;20182;-76
2021/12/11 11:02:31;;;;;;;20.10;9.57;;;0.70;99.90;;;;;;5024429;28;20206;-77
2021/12/11 11:05:03;;;;;;;17.92;9.38;;;0.70;99.90;;;;;;5012613;28;20191;-76
2021/12/11 11:07:30;;;;;;;19.02;10.15;;;0.70;99.90;;;;;;4994891;28;20181;-76
2021/12/11 11:10:00;;;;;;;20.45;9.95;;;0.70;99.90;;;;;;5011392;28;20165;-75
2021/12/11 11:12:28;;;;;;;21.25;10.18;;;0.70;99.90;;;;;;5012681;28;20166;-76
2021/12/11 11:14:55;;;;;;;20.73;9.48;;;0.70;99.90;;;;;;5012727;28;20221;-76
2021/12/11 11:17:26;;;;;;;20.00;10.27;;;0.70;99.90;;;;;;5012670;28;20514;-76
2021/12/11 11:19:54;;;;;;;20.13;9.65;;;0.80;99.90;;;;;;5012590;28;20648;-75
2021/12/11 11:22:24;;;;;;;21.33;11.10;;;0.80;99.90;;;;;;4995026;28;20206;-76
2021/12/11 11:24:57;;;;;;;23.90;11.32;;;0.80;99.90;;;;;;5012492;28;20681;-77
2021/12/11 11:27:23;;;;;;;14.75;7.53;;;0.90;99.90;;;;;;5012439;28;20189;-76
2021/12/11 11:29:50;;;;;;;12.68;7.13;;;1.00;99.90;;;;;;5029860;28;20184;-77
2021/12/11 11:32:21;;;;;;;11.45;6.47;;;1.10;99.90;;;;;;5032032;28;20197;-76
2021/12/11 11:34:47;;;;;;;12.02;5.60;;;1.20;99.90;;;;;;5031715;28;20217;-76
2021/12/11 11:37:19;;;;;;;12.75;5.60;;;1.30;99.90;;;;;;5031591;28;20166;-78
2021/12/11 11:39:46;;;;;;;11.70;5.20;;;1.30;99.90;;;;;;5031929;28;20162;-76
2021/12/11 11:42:19;;;;;;;14.20;7.00;;;1.30;99.90;;;;;;5031816;28;20190;-77
2021/12/11 11:44:47;;;;;;;13.43;7.00;;;1.40;99.90;;;;;;5030500;28;20177;-77
2021/12/11 11:47:15;;;;;;;10.82;5.18;;;1.30;99.90;;;;;;5031742;28;20166;-77
2021/12/11 11:49:41;;;;;;;12.23;5.40;;;1.20;99.90;;;;;;5031708;28;20166;-77
2021/12/11 11:52:13;;;;;;;11.05;5.72;;;1.30;99.90;;;;;;5031604;28;20162;-77
2021/12/11 11:54:43;;;;;;;9.55;6.18;;;1.40;99.90;;;;;;5031583;28;20201;-76
2021/12/11 11:57:21;;;;;;;10.02;5.93;;;1.50;99.90;;;;;;5031550;28;20678;-77
2021/12/11 11:59:50;;;;;;;12.48;6.70;;;1.50;99.90;;;;;;5031415;28;20177;-76
2021/12/11 12:02:22;;;;;;;14.73;6.28;;;1.60;99.90;;;;;;5031429;28;20192;-76
2021/12/11 12:04:52;;;;;;;11.48;6.18;;;1.60;99.90;;;;;;5031555;28;20221;-78
2021/12/11 12:07:25;;;;;;;12.93;5.55;;;1.60;99.90;;;;;;5031224;28;20181;-77
2021/12/11 12:09:54;;;;;;;12.30;4.95;;;1.40;99.90;;;;;;5031339;28;20158;-76
2021/12/11 12:12:24;;;;;;;10.60;5.38;;;1.50;99.90;;;;;;5031252;28;20166;-77
2021/12/11 12:14:52;;;;;;;9.63;4.65;;;1.60;99.90;;;;;;5031429;28;20163;-77
2021/12/11 12:17:21;;;;;;;11.95;5.50;;;1.90;99.90;;;;;;5031417;28;20150;-78
2021/12/11 12:19:50;;;;;;;9.02;4.50;;;1.90;99.90;;;;;;5031281;28;20167;-76
2021/12/11 12:22:17;;;;;;;7.70;4.82;;;1.90;99.90;;;;;;5030899;28;20220;-76
2021/12/11 12:24:46;;;;;;;10.68;4.70;;;1.70;99.90;;;;;;5031071;28;20216;-76
2021/12/11 12:27:16;;;;;;;10.48;5.15;;;1.40;99.90;;;;;;5030941;28;20155;-76
2021/12/11 12:29:43;;;;;;;12.00;6.07;;;1.30;99.90;;;;;;5031017;28;20236;-76
2021/12/11 12:32:17;;;;;;;13.85;6.22;;;1.30;99.90;;;;;;5030881;28;20182;-76
2021/12/11 12:34:45;;;;;;;10.35;5.30;;;1.40;99.90;;;;;;5030922;28;20222;-76
2021/12/11 12:37:13;;;;;;;10.57;4.75;;;1.30;99.90;;;;;;5030599;28;20170;-76
2021/12/11 12:39:43;;;;;;;10.20;5.80;;;1.30;99.90;;;;;;5030727;28;20194;-77
2021/12/11 12:42:20;;;;;;;13.73;6.10;;;1.50;99.90;;;;;;5030756;28;20200;-76
2021/12/11 12:44:57;;;;;;;15.90;6.97;;;1.50;99.90;;;;;;5030780;28;20154;-76
2021/12/11 12:47:31;;;;;;;11.13;4.97;;;1.40;99.90;;;;;;5013052;28;20154;-76
2021/12/11 12:50:01;;;;;;;11.65;5.53;;;1.40;99.90;;;;;;5030431;28;20186;-77
2021/12/11 12:52:33;;;;;;;11.65;6.18;;;1.20;99.90;;;;;;5030503;28;20181;-76
2021/12/11 12:55:09;;;;;;;13.88;5.63;;;1.20;99.90;;;;;;5030364;28;20172;-76
2021/12/11 12:57:40;;;;;;;11.40;5.35;;;1.10;99.90;;;;;;5029877;28;20245;-76
2021/12/11 13:00:20;;;;;;;12.25;5.82;;;1.20;99.90;;;;;;5030402;28;20218;-76
2021/12/11 13:02:49;;;;;;;10.13;6.05;;;1.10;99.90;;;;;;5030352;28;20248;-77
2021/12/11 13:05:42;;;;;;;13.43;6.50;;;1.00;99.90;;;;;;5030299;28;20165;-77
2021/12/11 13:08:18;;;;;;;16.52;6.25;;;1.00;99.90;;;;;;5021849;28;20186;-76